Time;durP1;ratioP1;P1;durP2;ratioP2;P2;SDS_P1;SDS_P2;PMS_P1;PMS_P2;Temp;Humidity;BMP_temperature;BMP_pressure;BME280_temperature;BME280_humidity;BME280_pressure;Samples;Min_cycle;Max_cycle;Signal;HPM_P1;HPM_P2
2021/08/02 00:00:05;;;;;;;0.80;0.80;;;;;;;15.15;91.50;95855.61;127785;1093;26289;-92
2021/08/02 00:03:10;;;;;;;1.35;1.05;;;;;;;15.09;91.78;95852.36;127770;1093;30903;-92
2021/08/02 00:05:45;;;;;;;1.00;0.90;;;;;;;15.09;91.70;95862.27;127805;1093;34010;-92
2021/08/02 00:08:22;;;;;;;1.15;0.80;;;;;;;15.07;91.75;95854.58;127757;1093;26549;-92
2021/08/02 00:10:55;;;;;;;0.93;0.90;;;;;;;15.08;91.55;95872.16;127867;1093;27257;-91
2021/08/02 00:13:31;;;;;;;0.80;0.80;;;;;;;15.08;92.18;95876.72;127803;1093;26953;-91
2021/08/02 00:16:05;;;;;;;0.83;0.80;;;;;;;15.06;91.87;95876.23;127784;1092;28840;-92
2021/08/02 00:18:37;;;;;;;0.80;0.80;;;;;;;15.07;91.74;95880.50;127833;1093;30209;-91
2021/08/02 00:21:08;;;;;;;0.80;0.65;;;;;;;15.07;91.69;95885.83;127797;1093;28786;-92
2021/08/02 00:23:41;;;;;;;0.75;0.63;;;;;;;15.08;91.59;95892.73;127822;1093;30674;-92
2021/08/02 00:26:14;;;;;;;1.10;0.70;;;;;;;15.12;91.40;95893.64;127761;1095;68451;-91
2021/08/02 00:28:46;;;;;;;1.05;0.50;;;;;;;15.12;91.50;95896.31;127775;1093;26555;-91
2021/08/02 00:31:18;;;;;;;1.00;0.60;;;;;;;15.12;91.25;95904.32;127731;1093;30054;-92
2021/08/02 00:33:49;;;;;;;0.50;0.50;;;;;;;15.09;91.17;95905.75;127757;1093;28222;-91
2021/08/02 00:36:26;;;;;;;0.83;0.73;;;;;;;15.08;91.13;95904.19;127841;1092;29562;-92
2021/08/02 00:39:04;;;;;;;0.70;0.60;;;;;;;15.08;91.29;95911.42;127793;1093;23988;-91
2021/08/02 00:42:10;;;;;;;0.78;0.78;;;;;;;15.04;91.31;95905.92;127770;1093;26323;-92
2021/08/02 00:45:14;;;;;;;1.83;0.98;;;;;;;15.05;91.34;95909.38;127753;1093;30587;-92
2021/08/02 00:47:57;;;;;;;0.40;0.40;;;;;;;15.07;91.22;95917.87;127788;1092;29606;-92
2021/08/02 00:50:32;;;;;;;1.70;0.60;;;;;;;15.08;91.44;95919.43;127878;1093;27384;-91
2021/08/02 00:53:07;;;;;;;0.68;0.50;;;;;;;15.10;91.22;95917.22;127749;1092;30871;-91
2021/08/02 00:55:41;;;;;;;0.40;0.40;;;;;;;15.06;90.99;95916.28;127795;1094;27762;-91
2021/08/02 00:58:21;;;;;;;0.50;0.40;;;;;;;15.03;90.77;95919.59;127812;1093;34522;-93
2021/08/02 01:00:53;;;;;;;0.58;0.40;;;;;;;15.01;91.14;95924.48;127825;1093;38234;-92
2021/08/02 01:03:26;;;;;;;0.70;0.60;;;;;;;15.00;91.03;95933.59;127849;1093;32423;-91
2021/08/02 01:05:57;;;;;;;0.60;0.50;;;;;;;14.97;91.10;95927.02;127732;1092;35590;-92
2021/08/02 01:08:32;;;;;;;1.38;0.60;;;;;;;14.99;91.11;95926.70;127760;1093;37694;-92
2021/08/02 01:11:05;;;;;;;0.60;0.60;;;;;;;14.99;91.01;95924.02;127777;1093;27162;-92
2021/08/02 01:13:39;;;;;;;0.90;0.50;;;;;;;14.98;91.20;95919.80;127767;1093;31240;-92
2021/08/02 01:16:11;;;;;;;0.83;0.60;;;;;;;15.03;91.32;95920.38;127763;1093;34963;-92
2021/08/02 01:18:44;;;;;;;0.40;0.33;;;;;;;15.05;91.21;95928.84;127762;1093;31315;-91
2021/08/02 01:21:20;;;;;;;0.38;0.38;;;;;;;15.01;91.18;95919.14;127742;1092;34017;-92
2021/08/02 01:23:52;;;;;;;0.40;0.30;;;;;;;14.94;90.96;95922.33;127876;1093;56099;-92
2021/08/02 01:27:11;;;;;;;0.40;0.40;;;;;;;14.89;91.16;95921.72;127896;1093;28016;-91
2021/08/02 01:30:16;;;;;;;0.40;0.40;;;;;;;14.83;91.15;95924.58;127797;1091;29546;-92
2021/08/02 01:32:49;;;;;;;1.88;0.50;;;;;;;14.82;91.63;95931.02;127799;1093;34169;-92
2021/08/02 01:35:21;;;;;;;0.60;0.50;;;;;;;14.86;91.57;95941.83;127807;1093;27098;-92
2021/08/02 01:37:52;;;;;;;0.45;0.40;;;;;;;14.91;91.64;95935.52;127801;1093;28332;-93
2021/08/02 01:40:23;;;;;;;0.38;0.28;;;;;;;14.97;91.37;95934.25;127845;1093;25921;-92
2021/08/02 01:42:57;;;;;;;0.30;0.30;;;;;;;15.05;91.21;95933.40;127867;1095;25951;-92
2021/08/02 01:45:28;;;;;;;0.40;0.40;;;;;;;15.05;91.16;95936.85;127781;1093;28236;-92
2021/08/02 01:48:06;;;;;;;0.30;0.30;;;;;;;15.04;90.87;95942.52;127799;1094;27530;-92
2021/08/02 01:50:47;;;;;;;0.60;0.50;;;;;;;14.99;90.43;95942.71;127777;1093;26328;-93
2021/08/02 01:53:26;;;;;;;1.10;0.80;;;;;;;14.94;90.47;95943.69;127835;1093;34040;-93
2021/08/02 01:56:06;;;;;;;1.47;1.10;;;;;;;14.90;90.59;95952.64;127740;1093;28578;-94
2021/08/02 01:58:45;;;;;;;0.55;0.55;;;;;;;14.83;90.66;95961.94;127743;1093;31794;-93
2021/08/02 02:01:17;;;;;;;1.35;0.93;;;;;;;14.79;90.67;95961.02;127764;1092;65487;-92
2021/08/02 02:03:51;;;;;;;1.38;0.95;;;;;;;14.77;90.87;95984.55;127824;1092;30456;-92
2021/08/02 02:06:29;;;;;;;1.00;0.90;;;;;;;14.72;90.67;95986.63;127801;1093;28244;-93
2021/08/02 02:09:05;;;;;;;1.45;1.30;;;;;;;14.66;90.38;95978.02;127744;1093;29831;-90
2021/08/02 02:11:39;;;;;;;1.58;1.30;;;;;;;14.58;90.61;95976.16;127775;1093;30853;-91
2021/08/02 02:14:13;;;;;;;1.15;1.05;;;;;;;14.49;90.72;95978.83;127779;1093;27352;-93
2021/08/02 02:16:49;;;;;;;1.60;1.50;;;;;;;14.43;90.57;95984.64;127759;1095;27237;-92
2021/08/02 02:19:24;;;;;;;1.50;1.40;;;;;;;14.39;90.71;95976.50;127819;1095;26634;-91
2021/08/02 02:21:57;;;;;;;2.80;1.40;;;;;;;14.36;90.73;95987.02;127828;1093;27347;-93
2021/08/02 02:24:29;;;;;;;2.40;2.20;;;;;;;14.30;90.86;95990.94;127794;1092;30630;-92
2021/08/02 02:27:00;;;;;;;2.50;2.25;;;;;;;14.24;90.80;95985.00;127773;1093;28535;-93
2021/08/02 02:29:33;;;;;;;3.18;2.58;;;;;;;14.20;90.99;95992.83;127742;1093;34210;-93
2021/08/02 02:32:06;;;;;;;3.15;2.63;;;;;;;14.20;91.18;96003.48;127769;1096;35717;-92
2021/08/02 02:34:39;;;;;;;3.13;2.78;;;;;;;14.19;91.22;96004.59;127899;1094;28067;-92
2021/08/02 02:37:11;;;;;;;3.45;2.60;;;;;;;14.16;91.13;95999.89;127817;1093;27246;-90
2021/08/02 02:39:43;;;;;;;3.18;2.55;;;;;;;14.19;91.22;96004.59;127818;1094;51560;-92
2021/08/02 02:42:15;;;;;;;3.40;3.00;;;;;;;14.21;91.07;96009.60;127806;1093;29855;-93
2021/08/02 02:44:47;;;;;;;3.93;3.35;;;;;;;14.19;91.25;96012.59;127823;1092;33072;-93
2021/08/02 02:47:18;;;;;;;4.13;3.35;;;;;;;14.20;90.83;96014.16;127811;1092;29332;-93
2021/08/02 02:49:51;;;;;;;6.08;3.93;;;;;;;14.19;90.78;96022.47;127798;1096;30084;-94
2021/08/02 02:52:24;;;;;;;6.58;4.48;;;;;;;14.15;90.86;96035.65;127883;1096;29898;-93
2021/08/02 02:54:58;;;;;;;9.50;5.88;;;;;;;14.15;90.93;96037.53;127919;1095;30561;-93
2021/08/02 02:57:30;;;;;;;6.35;5.03;;;;;;;14.14;90.92;96047.41;127818;1093;32184;-93
2021/08/02 03:00:01;;;;;;;7.90;5.33;;;;;;;14.16;91.06;96044.43;127829;1093;29791;-93
2021/08/02 03:02:34;;;;;;;6.20;4.70;;;;;;;14.22;90.72;96051.97;127784;1093;32806;-93
2021/08/02 03:05:08;;;;;;;6.55;5.25;;;;;;;14.27;90.88;96053.69;127823;1093;35748;-93
2021/08/02 03:07:42;;;;;;;6.45;5.43;;;;;;;14.30;90.75;96057.59;127803;1093;34020;-92
2021/08/02 03:10:15;;;;;;;7.53;5.95;;;;;;;14.35;90.37;96050.20;127811;1093;30958;-93
2021/08/02 03:12:47;;;;;;;7.63;6.20;;;;;;;14.35;90.26;96063.55;127883;1096;32941;-93
2021/08/02 03:15:19;;;;;;;11.05;7.28;;;;;;;14.35;90.15;96065.42;127787;1092;30176;-93
2021/08/02 03:17:51;;;;;;;8.58;7.03;;;;;;;14.30;90.17;96060.27;127875;1093;32601;-93
2021/08/02 03:20:22;;;;;;;9.85;7.63;;;;;;;14.29;90.35;96064.81;127874;1093;30629;-93
2021/08/02 03:22:59;;;;;;;10.45;7.60;;;;;;;14.27;90.19;96056.34;127887;1096;32781;-94
2021/08/02 03:25:36;;;;;;;8.30;6.88;;;;;;;14.24;90.12;96056.98;127866;1093;31479;-93
2021/08/02 03:28:13;;;;;;;7.68;6.30;;;;;;;14.23;90.12;96066.87;127894;1092;28150;-93
2021/08/02 03:30:47;;;;;;;8.35;6.68;;;;;;;14.26;90.08;96068.90;127841;1093;31755;-93
2021/08/02 03:33:25;;;;;;;8.35;6.58;;;;;;;14.29;90.17;96064.81;127841;1093;34147;-94
2021/08/02 03:36:01;;;;;;;8.25;7.23;;;;;;;14.30;89.90;96068.27;127800;1092;33344;-93
2021/08/02 03:38:35;;;;;;;9.65;7.10;;;;;;;14.29;89.80;96069.36;127806;1093;36976;-93
2021/08/02 03:41:08;;;;;;;9.15;6.93;;;;;;;14.24;89.27;96071.09;127838;1094;29084;-93
2021/08/02 03:43:42;;;;;;;7.78;6.33;;;;;;;14.22;89.23;96075.97;127837;1093;29601;-93
2021/08/02 03:46:15;;;;;;;6.95;6.08;;;;;;;14.21;89.27;96076.25;127818;1092;30121;-91
2021/08/02 03:48:47;;;;;;;7.58;6.38;;;;;;;14.17;89.21;96076.11;127798;1092;26807;-92
2021/08/02 03:51:19;;;;;;;8.00;6.83;;;;;;;14.14;89.11;96082.06;127826;1092;28227;-93
2021/08/02 03:53:50;;;;;;;8.55;7.40;;;;;;;14.14;89.20;96091.95;127833;1093;31147;-92
2021/08/02 03:56:22;;;;;;;8.38;6.83;;;;;;;14.14;89.00;96097.28;126344;1093;1777728;-93
2021/08/02 03:58:53;;;;;;;7.50;6.13;;;;;;;14.15;88.94;96090.84;127897;1093;29908;-93
2021/08/02 04:01:25;;;;;;;6.85;6.10;;;;;;;14.14;88.63;96094.61;127944;1093;29022;-93
2021/08/02 04:03:56;;;;;;;8.93;6.43;;;;;;;14.13;88.67;96096.50;127902;1094;31997;-93
2021/08/02 04:06:27;;;;;;;6.68;5.78;;;;;;;14.12;88.42;96102.92;127774;1093;29960;-93
2021/08/02 04:08:59;;;;;;;7.43;5.68;;;;;;;14.12;88.41;96102.92;127822;1095;33048;-93
2021/08/02 04:11:30;;;;;;;7.75;5.83;;;;;;;14.11;88.29;96098.70;127863;1091;29381;-92
2021/08/02 04:14:02;;;;;;;6.83;6.13;;;;;;;14.12;88.12;96108.26;127787;1092;32623;-92
2021/08/02 04:16:34;;;;;;;9.63;6.78;;;;;;;14.11;88.09;96106.69;127817;1093;29881;-92
2021/08/02 04:19:07;;;;;;;8.70;6.50;;;;;;;14.12;87.92;96110.14;127870;1095;36417;-93
2021/08/02 04:21:39;;;;;;;8.08;6.63;;;;;;;14.12;87.76;96113.59;127828;1093;34631;-91
2021/08/02 04:24:11;;;;;;;7.28;5.85;;;;;;;14.12;87.88;96116.25;127846;1093;37506;-93
2021/08/02 04:26:42;;;;;;;7.28;6.30;;;;;;;14.13;87.65;96109.04;127834;1093;30749;-92
2021/08/02 04:29:14;;;;;;;6.50;5.55;;;;;;;14.13;87.21;96115.16;127787;1094;35180;-92
2021/08/02 04:31:46;;;;;;;8.83;6.95;;;;;;;14.13;87.53;96120.48;127840;1093;27693;-92
2021/08/02 04:34:17;;;;;;;8.55;6.80;;;;;;;14.14;87.49;96122.05;127788;1092;29805;-93
2021/08/02 04:36:49;;;;;;;9.25;6.83;;;;;;;14.17;87.60;96126.75;127748;1093;33187;-92
2021/08/02 04:39:20;;;;;;;6.78;5.83;;;;;;;14.19;87.41;96129.89;127823;1093;31731;-93
2021/08/02 04:41:52;;;;;;;7.40;5.63;;;;;;;14.18;87.30;96130.20;127887;1093;29070;-93
2021/08/02 04:44:23;;;;;;;6.15;5.50;;;;;;;14.19;87.14;96124.56;127927;1093;27132;-92
2021/08/02 04:46:55;;;;;;;6.27;4.87;;;;;;;14.22;87.08;96134.63;127892;1093;29251;-92
2021/08/02 04:49:26;;;;;;;7.60;5.58;;;;;;;14.25;87.13;96139.32;127831;1093;32564;-93
2021/08/02 04:51:57;;;;;;;6.98;5.80;;;;;;;14.24;87.18;96131.64;127822;1093;47048;-94
2021/08/02 04:54:29;;;;;;;5.95;5.08;;;;;;;14.29;87.18;96144.02;127822;1093;34837;-92
2021/08/02 04:57:00;;;;;;;7.30;5.88;;;;;;;14.32;86.87;96144.17;127863;1093;26265;-93
2021/08/02 04:59:32;;;;;;;8.10;6.03;;;;;;;14.33;86.95;96150.29;128655;1091;31048;-92
2021/08/02 05:02:03;;;;;;;5.80;4.85;;;;;;;14.35;86.91;96158.76;129933;1092;28988;-93
2021/08/02 05:04:34;;;;;;;6.20;5.23;;;;;;;14.34;86.64;96151.86;129529;1091;33813;-94
2021/08/02 05:07:06;;;;;;;8.00;4.60;;;;;;;14.34;86.39;96151.86;127876;1093;27995;-93
2021/08/02 05:09:37;;;;;;;5.23;4.28;;;;;;;14.33;86.34;96163.63;127853;1093;33619;-93
2021/08/02 05:12:11;;;;;;;4.65;4.25;;;;;;;14.33;86.21;96164.41;127762;1093;32827;-93
2021/08/02 05:14:42;;;;;;;7.18;4.68;;;;;;;14.30;86.15;96169.59;127842;1093;31682;-92
2021/08/02 05:17:14;;;;;;;5.55;4.28;;;;;;;14.30;86.13;96181.03;127790;1093;33219;-92
2021/08/02 05:19:45;;;;;;;4.83;4.10;;;;;;;14.30;86.25;96189.03;127801;1092;31758;-92
2021/08/02 05:22:17;;;;;;;5.35;4.50;;;;;;;14.30;86.10;96191.70;127811;1093;40558;-93
2021/08/02 05:24:48;;;;;;;5.25;4.28;;;;;;;14.31;86.07;96192.48;127797;1093;80736;-92
2021/08/02 05:27:19;;;;;;;5.05;4.05;;;;;;;14.32;86.36;96191.39;127833;1095;63639;-94
2021/08/02 05:29:51;;;;;;;5.43;4.18;;;;;;;14.34;86.07;96191.86;127793;1093;33027;-92
2021/08/02 05:32:22;;;;;;;6.73;4.20;;;;;;;14.35;86.06;96201.42;127882;1093;30814;-93
2021/08/02 05:34:53;;;;;;;5.73;4.13;;;;;;;14.35;86.07;96198.75;127859;1093;28673;-93
2021/08/02 05:37:24;;;;;;;4.10;3.35;;;;;;;14.36;86.16;96197.69;127907;1093;37406;-93
2021/08/02 05:39:56;;;;;;;4.58;3.38;;;;;;;14.35;85.94;96201.42;127902;1095;44023;-93
2021/08/02 05:42:27;;;;;;;4.45;3.68;;;;;;;14.36;86.32;96198.47;127817;1093;29059;-93
2021/08/02 05:44:59;;;;;;;4.30;3.53;;;;;;;14.38;86.35;96206.16;127818;1092;29195;-92
2021/08/02 05:47:30;;;;;;;4.47;3.60;;;;;;;14.43;86.19;96204.11;127750;1093;43211;-93
2021/08/02 05:50:03;;;;;;;4.25;3.53;;;;;;;14.44;86.31;96203.05;127825;1093;28725;-92
2021/08/02 05:52:35;;;;;;;4.95;3.50;;;;;;;14.51;86.16;96205.27;127896;1094;28806;-93
2021/08/02 05:55:07;;;;;;;3.95;3.43;;;;;;;14.53;86.06;96203.84;127872;1095;29600;-93
2021/08/02 05:57:39;;;;;;;3.77;3.07;;;;;;;14.52;85.51;96218.28;127809;1093;34711;-93
2021/08/02 06:00:14;;;;;;;4.05;3.05;;;;;;;14.53;85.60;96216.40;127811;1093;31299;-93
2021/08/02 06:02:45;;;;;;;4.85;2.98;;;;;;;14.52;85.39;96222.83;126052;1093;2005588;-92
2021/08/02 06:05:17;;;;;;;4.25;2.73;;;;;;;14.52;85.41;96225.50;127753;1093;26538;-92
2021/08/02 06:07:48;;;;;;;2.55;2.30;;;;;;;14.49;85.08;96229.55;127787;1096;28392;-92
2021/08/02 06:10:20;;;;;;;2.98;2.65;;;;;;;14.44;84.78;96236.94;127838;1095;27766;-91
2021/08/02 06:12:51;;;;;;;2.93;2.43;;;;;;;14.44;85.01;96234.27;127886;1093;47691;-93
2021/08/02 06:15:23;;;;;;;3.23;2.55;;;;;;;14.45;85.17;96238.50;127850;1093;25749;-92
2021/08/02 06:17:55;;;;;;;3.43;2.30;;;;;;;14.48;85.23;96243.20;127848;1093;28286;-92
2021/08/02 06:20:26;;;;;;;6.03;2.38;;;;;;;14.48;85.16;96249.32;127821;1093;34038;-92
2021/08/02 06:22:57;;;;;;;3.10;2.40;;;;;;;14.50;85.07;96254.38;127745;1093;31289;-92
2021/08/02 06:25:29;;;;;;;2.80;2.37;;;;;;;14.54;85.13;96257.98;127813;1093;29921;-93
2021/08/02 06:28:00;;;;;;;2.30;2.00;;;;;;;14.56;84.83;96261.12;127804;1093;29360;-93
2021/08/02 06:30:32;;;;;;;4.40;2.20;;;;;;;14.55;84.35;96259.55;127766;1096;28622;-92
2021/08/02 06:33:03;;;;;;;2.30;2.00;;;;;;;14.55;84.59;96263.00;127786;1093;28641;-92
2021/08/02 06:35:35;;;;;;;3.20;2.00;;;;;;;14.61;84.66;96265.51;127754;1092;28529;-91
2021/08/02 06:38:07;;;;;;;3.30;2.13;;;;;;;14.64;84.51;96270.22;127794;1093;27513;-92
2021/08/02 06:40:38;;;;;;;3.83;2.10;;;;;;;14.66;84.38;96276.83;127787;1094;28647;-93
2021/08/02 06:43:10;;;;;;;2.38;1.78;;;;;;;14.68;84.30;96276.52;127741;1094;27699;-92
2021/08/02 06:45:41;;;;;;;3.35;2.00;;;;;;;14.73;84.65;96269.14;127733;1093;32363;-93
2021/08/02 06:48:13;;;;;;;3.38;2.33;;;;;;;14.85;84.94;96271.19;127785;1092;31591;-92
2021/08/02 06:50:45;;;;;;;3.30;1.88;;;;;;;14.87;84.20;96276.21;127775;1093;25288;-92
2021/08/02 06:53:16;;;;;;;3.88;1.80;;;;;;;14.87;84.91;96284.22;127744;1092;28175;-92
2021/08/02 06:55:48;;;;;;;3.63;1.75;;;;;;;14.87;84.66;96274.33;127785;1093;26997;-93
2021/08/02 06:58:19;;;;;;;2.83;1.83;;;;;;;14.91;84.69;96277.15;127740;1093;26457;-93
2021/08/02 07:00:55;;;;;;;2.88;1.75;;;;;;;15.04;84.81;96265.53;127777;1092;28869;-91
2021/08/02 07:03:26;;;;;;;2.95;1.70;;;;;;;15.09;84.17;96276.07;127822;1093;39558;-91
2021/08/02 07:05:58;;;;;;;2.25;1.68;;;;;;;15.17;84.05;96275.27;127785;1093;28875;-93
2021/08/02 07:08:30;;;;;;;2.65;1.70;;;;;;;15.29;84.10;96277.30;127832;1093;35977;-92
2021/08/02 07:11:01;;;;;;;1.48;1.30;;;;;;;15.33;82.98;96281.69;127796;1092;24571;-93
2021/08/02 07:13:33;;;;;;;2.18;1.65;;;;;;;15.43;83.64;96278.69;127778;1095;28880;-93
2021/08/02 07:16:05;;;;;;;1.60;1.50;;;;;;;15.59;82.09;96281.67;127802;1093;24915;-93
2021/08/02 07:18:37;;;;;;;2.78;1.50;;;;;;;15.63;81.59;96282.63;127792;1093;33446;-92
2021/08/02 07:21:08;;;;;;;1.60;1.13;;;;;;;15.59;81.37;96275.52;127800;1093;29081;-92
2021/08/02 07:23:40;;;;;;;2.03;1.40;;;;;;;15.66;81.75;96281.20;127845;1093;25115;-93
2021/08/02 07:26:11;;;;;;;2.90;1.48;;;;;;;18.15;80.74;96265.53;127803;1095;36002;-92
2021/08/02 07:28:45;;;;;;;1.70;1.60;;;;;;;19.66;76.50;96270.37;127821;1093;28699;-93
2021/08/02 07:31:16;;;;;;;1.60;1.40;;;;;;;20.10;71.02;96267.63;127756;1093;30627;-94
2021/08/02 07:33:50;;;;;;;2.40;1.40;;;;;;;20.82;69.59;96273.53;127805;1092;26308;-94
2021/08/02 07:36:22;;;;;;;2.68;1.25;;;;;;;21.11;66.42;96274.91;127851;1092;30592;-93
2021/08/02 07:38:54;;;;;;;2.58;1.53;;;;;;;21.03;64.28;96267.83;127824;1092;29368;-94
2021/08/02 07:41:26;;;;;;;2.93;1.45;;;;;;;20.71;64.91;96269.85;127881;1095;27218;-93
2021/08/02 07:43:59;;;;;;;2.80;1.73;;;;;;;19.88;64.52;96273.63;127727;1093;36147;-93
2021/08/02 07:46:31;;;;;;;3.13;1.65;;;;;;;19.42;66.18;96275.83;127796;1095;26003;-93
2021/08/02 07:49:02;;;;;;;2.43;1.90;;;;;;;19.66;65.40;96277.66;127765;1095;33091;-92
2021/08/02 07:51:35;;;;;;;3.40;1.95;;;;;;;19.99;65.12;96283.53;127823;1095;29616;-95
2021/08/02 07:54:06;;;;;;;2.88;1.55;;;;;;;19.64;64.58;96280.69;127791;1095;33897;-93
2021/08/02 07:56:37;;;;;;;2.68;1.78;;;;;;;19.11;66.13;96289.95;127810;1093;36501;-94
2021/08/02 07:59:09;;;;;;;3.00;1.98;;;;;;;18.97;66.65;96280.35;127755;1096;47026;-92
2021/08/02 08:01:41;;;;;;;3.20;2.20;;;;;;;18.73;66.89;96288.48;127750;1094;31279;-93
2021/08/02 08:04:12;;;;;;;3.70;2.50;;;;;;;18.58;67.70;96287.23;127795;1093;29817;-93
2021/08/02 08:06:46;;;;;;;4.15;2.38;;;;;;;18.38;67.88;96294.28;127784;1093;37116;-94
2021/08/02 08:09:18;;;;;;;3.25;2.20;;;;;;;18.24;68.67;96299.20;127839;1093;28840;-94
2021/08/02 08:11:49;;;;;;;2.63;2.00;;;;;;;18.43;68.91;96295.95;127757;1093;32889;-92
2021/08/02 08:14:20;;;;;;;3.78;2.88;;;;;;;19.51;66.33;96303.36;127776;1093;34120;-93
2021/08/02 08:16:52;;;;;;;3.67;2.80;;;;;;;19.20;66.64;96301.35;127814;1095;32899;-93
2021/08/02 08:19:23;;;;;;;4.33;2.80;;;;;;;19.56;66.98;96293.19;127817;1093;35345;-93
2021/08/02 08:21:56;;;;;;;4.23;2.80;;;;;;;20.69;66.17;96299.03;127831;1093;32617;-94
2021/08/02 08:24:27;;;;;;;3.33;2.45;;;;;;;23.17;63.89;96303.89;127865;1095;29463;-94
2021/08/02 08:26:59;;;;;;;2.75;2.50;;;;;;;23.39;58.47;96308.44;127824;1093;37116;-95
2021/08/02 08:29:31;;;;;;;5.13;2.50;;;;;;;22.14;57.86;96308.52;127767;1092;36024;-94
2021/08/02 08:32:02;;;;;;;2.95;2.50;;;;;;;20.69;60.13;96317.88;127786;1093;33326;-94
2021/08/02 08:34:33;;;;;;;3.33;2.68;;;;;;;19.95;61.59;96323.00;127785;1093;30505;-94
2021/08/02 08:37:05;;;;;;;4.95;2.98;;;;;;;19.25;63.42;96342.20;127778;1093;30224;-91
2021/08/02 08:39:37;;;;;;;4.23;2.70;;;;;;;18.78;64.71;96335.80;127771;1093;37184;-92
2021/08/02 08:42:09;;;;;;;3.55;3.18;;;;;;;18.39;65.83;96344.16;127746;1093;32383;-93
2021/08/02 08:44:40;;;;;;;3.98;3.38;;;;;;;18.20;66.76;96345.82;127743;1093;30073;-93
2021/08/02 08:47:12;;;;;;;3.85;3.40;;;;;;;17.93;67.84;96347.22;127735;1093;34587;-93
2021/08/02 08:49:44;;;;;;;3.30;2.98;;;;;;;17.86;68.61;96349.64;127734;1093;34363;-92
2021/08/02 08:52:17;;;;;;;4.95;3.55;;;;;;;17.86;69.65;96339.70;127722;1093;36332;-95
2021/08/02 08:54:48;;;;;;;5.30;3.53;;;;;;;18.02;69.80;96346.02;127782;1093;33462;-91
2021/08/02 08:57:19;;;;;;;4.10;3.65;;;;;;;18.06;70.39;96346.91;127767;1095;30984;-93
2021/08/02 08:59:53;;;;;;;5.10;3.70;;;;;;;18.31;70.93;96346.96;127791;1094;38254;-93
2021/08/02 09:02:28;;;;;;;4.90;3.60;;;;;;;18.45;69.34;96344.73;127860;1093;28093;-92
2021/08/02 09:05:02;;;;;;;4.63;3.50;;;;;;;18.48;70.23;96345.96;127784;1095;27727;-93
2021/08/02 09:07:43;;;;;;;5.35;3.70;;;;;;;18.52;69.28;96336.11;127839;1094;30061;-92
2021/08/02 09:10:15;;;;;;;5.60;4.45;;;;;;;18.49;69.60;96342.16;127813;1095;32189;-92
2021/08/02 09:12:56;;;;;;;4.68;4.15;;;;;;;18.53;69.68;96334.98;127758;1092;30962;-94
2021/08/02 09:15:33;;;;;;;;;;;;;;;18.55;68.50;96336.22;127783;1093;33844;-93
2021/08/02 09:18:06;;;;;;;4.43;3.73;;;;;;;18.40;69.40;96340.35;127756;1093;30733;-93
2021/08/02 09:20:39;;;;;;;5.40;4.35;;;;;;;18.37;69.54;96338.34;127794;1093;30147;-92
2021/08/02 09:23:14;;;;;;;5.38;3.93;;;;;;;18.33;69.40;96333.98;127784;1092;30394;-93
2021/08/02 09:25:50;;;;;;;5.53;4.18;;;;;;;18.34;69.23;96322.91;127856;1093;29583;-92
2021/08/02 09:28:24;;;;;;;5.60;4.50;;;;;;;18.34;69.31;96332.87;127834;1094;31233;-91
2021/08/02 09:30:58;;;;;;;5.43;4.93;;;;;;;18.30;68.50;96324.71;127835;1093;27981;-93
2021/08/02 09:33:44;;;;;;;5.70;4.75;;;;;;;18.28;68.82;96323.45;127737;1092;31399;-93
2021/08/02 09:36:16;;;;;;;6.10;4.75;;;;;;;18.32;68.96;96324.38;127841;1093;31187;-93
2021/08/02 09:38:48;;;;;;;6.28;4.68;;;;;;;18.49;69.34;96321.47;127727;1093;35777;-93
2021/08/02 09:41:23;;;;;;;5.45;4.93;;;;;;;18.62;69.17;96322.25;127818;1093;27814;-93
2021/08/02 09:43:54;;;;;;;6.68;5.00;;;;;;;18.78;69.66;96331.20;127905;1092;29530;-94
2021/08/02 09:46:26;;;;;;;6.40;5.05;;;;;;;18.87;68.70;96328.41;127858;1093;27796;-93
2021/08/02 09:49:03;;;;;;;6.35;5.25;;;;;;;18.80;68.23;96331.66;127794;1092;34511;-92
2021/08/02 09:51:45;;;;;;;6.40;5.53;;;;;;;18.74;69.23;96341.07;127720;1093;39074;-93
2021/08/02 09:54:26;;;;;;;5.75;4.95;;;;;;;18.84;68.20;96337.91;127796;1093;33254;-93
2021/08/02 09:56:58;;;;;;;6.18;4.65;;;;;;;18.84;68.17;96329.84;127762;1095;31028;-94
2021/08/02 09:59:30;;;;;;;6.70;5.23;;;;;;;18.99;70.00;96337.20;127849;1093;36233;-93
2021/08/02 10:02:06;;;;;;;8.55;5.45;;;;;;;19.10;69.17;96340.22;127837;1092;30506;-94
2021/08/02 10:04:38;;;;;;;5.48;4.90;;;;;;;19.19;68.93;96345.47;127817;1093;31321;-94
2021/08/02 10:07:13;;;;;;;5.73;4.98;;;;;;;19.33;69.50;96342.41;127868;1093;29429;-94
2021/08/02 10:09:45;;;;;;;5.33;4.80;;;;;;;19.49;68.33;96330.59;127857;1093;33543;-94
2021/08/02 10:12:16;;;;;;;5.75;4.85;;;;;;;19.53;68.07;96336.84;127795;1092;30369;-93
2021/08/02 10:14:55;;;;;;;6.10;5.00;;;;;;;19.65;68.54;96344.11;127762;1093;38953;-95
2021/08/02 10:17:26;;;;;;;7.25;4.50;;;;;;;19.68;66.98;96348.80;127884;1093;27131;-95
2021/08/02 10:19:58;;;;;;;5.45;4.43;;;;;;;19.65;68.06;96343.33;127827;1093;32599;-95
2021/08/02 10:22:29;;;;;;;5.93;4.70;;;;;;;19.56;66.83;96346.97;127840;1096;29175;-94
2021/08/02 10:25:00;;;;;;;6.18;4.63;;;;;;;19.31;66.93;96345.45;129538;1093;28074;-93
2021/08/02 10:27:32;;;;;;;6.78;4.23;;;;;;;19.37;66.80;96351.35;129850;1093;28087;-94
2021/08/02 10:30:04;;;;;;;5.95;4.03;;;;;;;19.54;67.51;96349.19;128862;1095;28063;-94
2021/08/02 10:32:36;;;;;;;5.00;4.50;;;;;;;19.73;67.51;96345.88;127799;1093;60260;-93
2021/08/02 10:35:09;;;;;;;4.23;3.83;;;;;;;19.91;66.69;96342.88;127827;1092;34342;-92
2021/08/02 10:37:41;;;;;;;5.70;4.08;;;;;;;20.03;67.15;96354.36;127753;1092;78709;-94
2021/08/02 10:40:14;;;;;;;4.60;3.50;;;;;;;20.26;65.93;96348.38;127858;1093;37801;-93
2021/08/02 10:42:50;;;;;;;4.30;3.83;;;;;;;20.37;64.81;96344.82;127803;1093;35530;-95
2021/08/02 10:45:33;;;;;;;4.23;3.60;;;;;;;20.39;64.16;96345.25;127836;1095;29303;-94
2021/08/02 10:48:05;;;;;;;3.90;3.53;;;;;;;20.28;63.24;96343.45;127934;1093;32766;-94
2021/08/02 10:50:41;;;;;;;4.00;3.60;;;;;;;20.34;63.43;96344.73;127839;1093;27605;-95
2021/08/02 10:53:18;;;;;;;3.63;3.08;;;;;;;20.31;63.14;96340.84;127887;1093;33885;-93
2021/08/02 10:55:52;;;;;;;4.03;3.58;;;;;;;20.29;62.33;96339.63;127893;1093;32826;-93
2021/08/02 10:58:32;;;;;;;4.10;3.70;;;;;;;20.19;63.65;96337.44;127906;1095;32529;-94
2021/08/02 11:01:04;;;;;;;;;;;;;;;20.20;63.12;96336.31;127951;1093;40777;-92
2021/08/02 11:03:38;;;;;;;3.93;3.63;;;;;;;20.19;63.72;96340.91;127855;1092;31976;-93
2021/08/02 11:06:11;;;;;;;3.85;3.25;;;;;;;20.34;64.06;96334.75;127795;1093;34975;-94
2021/08/02 11:08:49;;;;;;;4.48;3.05;;;;;;;20.51;63.11;96330.16;127823;1092;33148;-93
2021/08/02 11:11:29;;;;;;;4.45;3.28;;;;;;;20.68;62.44;96327.88;127850;1093;29764;-93
2021/08/02 11:14:09;;;;;;;;;;;;;;;20.71;61.75;96335.28;127879;1093;33947;-94
2021/08/02 11:16:46;;;;;;;6.27;4.57;;;;;;;20.80;62.58;96327.00;127874;1093;31885;-94
2021/08/02 11:19:21;;;;;;;3.50;3.20;;;;;;;20.96;63.13;96327.73;127837;1093;32461;-93
2021/08/02 11:22:04;;;;;;;3.73;2.93;;;;;;;20.93;62.24;96333.84;127891;1093;31706;-94
2021/08/02 11:24:38;;;;;;;3.30;2.90;;;;;;;20.94;62.51;96334.61;127888;1093;34284;-94
2021/08/02 11:27:10;;;;;;;6.18;3.65;;;;;;;20.93;62.77;96336.53;127812;1092;37766;-93
2021/08/02 11:29:42;;;;;;;3.75;3.45;;;;;;;20.92;61.26;96331.50;127880;1093;32168;-94
2021/08/02 11:32:14;;;;;;;3.78;3.10;;;;;;;20.84;60.47;96340.57;127893;1093;33126;-93
2021/08/02 11:34:51;;;;;;;2.93;2.60;;;;;;;20.81;60.63;96319.70;127797;1093;29419;-93
2021/08/02 11:37:25;;;;;;;3.68;3.05;;;;;;;20.81;60.31;96328.55;127944;1093;33437;-94
2021/08/02 11:40:02;;;;;;;3.15;2.85;;;;;;;20.84;59.55;96335.18;127896;1093;30833;-95
2021/08/02 11:42:37;;;;;;;2.93;2.55;;;;;;;20.92;60.29;96326.11;127892;1093;32948;-95
2021/08/02 11:45:10;;;;;;;2.55;2.33;;;;;;;20.84;58.91;96335.18;127845;1093;35139;-93
2021/08/02 11:47:46;;;;;;;2.78;2.45;;;;;;;20.79;59.12;96320.05;127912;1093;28940;-92
2021/08/02 11:50:18;;;;;;;2.95;2.53;;;;;;;20.86;58.74;96324.83;127907;1093;33259;-94
2021/08/02 11:53:03;;;;;;;5.23;4.08;;;;;;;20.99;59.27;96323.58;127907;1092;29593;-94
2021/08/02 11:55:35;;;;;;;4.33;2.40;;;;;;;21.12;58.95;96327.72;127930;1092;31250;-94